Time;durP1;ratioP1;P1;durP2;ratioP2;P2;SDS_P1;SDS_P2;PMS_P1;PMS_P2;Temp;Humidity;BMP_temperature;BMP_pressure;BME280_temperature;BME280_humidity;BME280_pressure;Samples;Min_cycle;Max_cycle;Signal;HPM_P1;HPM_P2
2022/02/22 00:00:46;;;;;;;;;7.00;3.25;;;;;18.51;36.99;101974.34;5076129;27;51157;-50
2022/02/22 00:03:12;;;;;;;;;3.00;2.75;;;;;18.53;37.01;101968.66;5075970;27;51061;-50
2022/02/22 00:05:38;;;;;;;;;6.25;4.00;;;;;18.51;37.15;101977.09;5076113;27;51202;-52
2022/02/22 00:08:04;;;;;;;;;4.75;4.00;;;;;18.51;37.06;101968.00;5075735;27;51841;-51
2022/02/22 00:10:30;;;;;;;;;4.25;3.50;;;;;18.50;37.23;101964.41;5075772;27;51045;-51
2022/02/22 00:12:56;;;;;;;;;3.50;2.50;;;;;18.50;37.10;101972.63;5076139;27;51168;-52
2022/02/22 00:15:21;;;;;;;;;5.50;2.00;;;;;18.51;37.14;101973.50;5076602;27;50933;-50
2022/02/22 00:17:46;;;;;;;;;4.50;3.00;;;;;18.50;37.31;101974.53;5079416;27;50960;-51
2022/02/22 00:20:13;;;;;;;;;2.25;2.25;;;;;18.50;36.89;101974.53;5079557;27;51170;-50
2022/02/22 00:22:39;;;;;;;;;5.50;2.00;;;;;18.49;37.05;101987.41;5079519;27;51137;-53
2022/02/22 00:25:06;;;;;;;;;4.25;4.00;;;;;18.49;37.20;101964.59;5079522;27;51053;-52
2022/02/22 00:27:31;;;;;;;;;2.50;2.50;;;;;18.49;37.19;101975.56;5079047;27;51843;-52
2022/02/22 00:29:57;;;;;;;;;5.00;3.00;;;;;18.48;36.99;101973.88;5079316;27;51111;-52
2022/02/22 00:32:22;;;;;;;;;4.00;2.50;;;;;18.49;37.19;101981.06;5079208;27;51387;-50
2022/02/22 00:34:49;;;;;;;;;6.00;4.00;;;;;18.49;37.29;101984.66;5079524;27;50981;-53
2022/02/22 00:37:14;;;;;;;;;3.50;1.75;;;;;18.48;37.28;101980.19;5078911;27;51972;-52
2022/02/22 00:39:40;;;;;;;;;3.00;2.00;;;;;18.48;37.39;101987.59;5111574;27;51027;-52
2022/02/22 00:42:05;;;;;;;;;5.00;4.00;;;;;18.48;37.17;101987.59;5079156;27;51081;-51
2022/02/22 00:44:32;;;;;;;;;4.50;3.75;;;;;18.47;37.33;101984.00;5079297;27;51482;-52
2022/02/22 00:46:57;;;;;;;;;4.50;2.00;;;;;18.46;37.47;101982.28;5078790;27;51143;-51
2022/02/22 00:49:23;;;;;;;;;2.00;1.00;;;;;18.46;37.14;101985.88;5079115;27;51115;-49
2022/02/22 00:51:48;;;;;;;;;3.50;3.00;;;;;18.46;37.18;101994.09;5077406;27;51177;-53
2022/02/22 00:54:13;;;;;;;;;3.75;2.50;;;;;18.46;37.18;101987.78;5078771;27;51000;-51
2022/02/22 00:56:39;;;;;;;;;2.00;2.00;;;;;18.45;37.25;101983.31;5078492;27;51936;-53
2022/02/22 00:59:04;;;;;;;;;4.00;3.25;;;;;18.45;37.23;101997.03;5079016;27;51119;-48
2022/02/22 01:01:29;;;;;;;;;4.00;2.25;;;;;18.45;37.35;101995.16;5078678;27;51187;-50
2022/02/22 01:03:55;;;;;;;;;5.25;3.00;;;;;18.45;37.23;102000.63;5111839;27;51036;-49
2022/02/22 01:06:21;;;;;;;;;4.00;2.50;;;;;18.44;37.33;101990.69;5078406;28;51024;-48
2022/02/22 01:08:46;;;;;;;;;3.00;2.00;;;;;18.45;37.37;101991.56;5078595;27;51100;-53
2022/02/22 01:11:11;;;;;;;;;2.50;2.50;;;;;18.44;37.35;102000.78;5078749;27;51084;-49
2022/02/22 01:13:37;;;;;;;;;6.00;4.50;;;;;18.44;37.13;102007.16;5078775;27;51021;-50
2022/02/22 01:16:02;;;;;;;;;5.25;3.50;;;;;18.44;37.33;102000.78;5078064;27;52145;-53
2022/02/22 01:18:28;;;;;;;;;8.25;3.75;;;;;18.43;37.28;102001.81;5078574;28;50984;-49
2022/02/22 01:20:53;;;;;;;;;2.25;2.00;;;;;18.43;36.95;102008.16;5078275;27;51196;-49
2022/02/22 01:23:19;;;;;;;;;2.75;2.75;;;;;18.44;37.25;102017.25;5078567;27;51099;-51
2022/02/22 01:25:44;;;;;;;;;2.75;2.75;;;;;18.43;37.29;102021.88;5078190;27;50941;-49
2022/02/22 01:28:10;;;;;;;;;5.75;4.00;;;;;18.42;37.25;102027.56;5078259;27;51163;-49
2022/02/22 01:30:35;;;;;;;;;4.50;2.75;;;;;18.41;36.85;102007.50;5078096;27;51307;-50
2022/02/22 01:33:00;;;;;;;;;4.25;2.00;;;;;18.43;37.28;102010.06;5078327;27;51140;-50
2022/02/22 01:35:26;;;;;;;;;4.25;3.00;;;;;18.42;37.48;102011.94;5078115;27;51950;-52
2022/02/22 01:37:51;;;;;;;;;3.00;2.75;;;;;18.42;37.44;102019.31;5078067;27;51006;-50
2022/02/22 01:40:17;;;;;;;;;7.25;3.75;;;;;18.42;37.31;102013.84;5077985;27;51269;-51
2022/02/22 01:42:42;;;;;;;;;7.25;4.00;;;;;18.41;37.40;102015.72;5078523;27;50943;-52
2022/02/22 01:45:09;;;;;;;;;4.00;3.00;;;;;18.41;37.66;102009.38;5078000;27;52019;-53
2022/02/22 01:47:34;;;;;;;;;4.50;2.25;;;;;18.41;37.34;102014.88;5078226;27;51296;-49
2022/02/22 01:50:00;;;;;;;;;5.50;3.00;;;;;18.40;37.33;102010.44;5078160;27;51044;-48
2022/02/22 01:52:26;;;;;;;;;11.00;3.00;;;;;18.40;37.46;102016.78;5078049;27;51143;-50
2022/02/22 01:54:53;;;;;;;;;4.25;2.75;;;;;18.40;37.22;102015.91;5077671;27;51347;-53
2022/02/22 01:57:18;;;;;;;;;3.75;1.25;;;;;18.40;37.50;102010.44;5078274;27;51029;-48
2022/02/22 01:59:45;;;;;;;;;5.75;2.75;;;;;18.39;37.20;102014.22;5078078;27;51249;-54
2022/02/22 02:02:10;;;;;;;;;7.00;4.50;;;;;18.40;37.41;102014.03;5078221;27;51069;-52
2022/02/22 02:04:36;;;;;;;;;3.25;3.25;;;;;18.38;37.35;102010.63;5077490;27;50982;-52
2022/02/22 02:07:01;;;;;;;;;3.00;2.00;;;;;18.38;37.27;102012.50;5077977;27;51255;-52
2022/02/22 02:09:27;;;;;;;;;4.00;2.75;;;;;18.38;37.46;102004.28;5077745;27;51154;-51
2022/02/22 02:11:57;;;;;;;;;6.00;2.00;;;;;18.38;37.23;102012.50;5077947;27;51131;-52
2022/02/22 02:14:24;;;;;;;;;3.00;3.00;;;;;18.38;37.30;102016.09;5077535;27;51984;-53
2022/02/22 02:16:51;;;;;;;;;4.00;2.25;;;;;18.37;37.24;102011.66;5077540;27;51405;-52
2022/02/22 02:19:21;;;;;;;;;7.50;3.00;;;;;18.38;37.56;102023.47;5077750;27;50988;-54
2022/02/22 02:21:48;;;;;;;;;4.00;3.00;;;;;18.36;37.61;102012.69;5077622;27;51031;-53
2022/02/22 02:24:21;;;;;;;;;8.25;4.25;;;;;18.37;37.52;102010.78;5076810;28;51868;-51
2022/02/22 02:26:48;;;;;;;;;5.50;3.75;;;;;18.36;37.45;102031.88;5077468;27;50994;-52
2022/02/22 02:29:16;;;;;;;;;8.00;4.00;;;;;18.37;37.40;102036.34;5077349;27;51207;-52
2022/02/22 02:31:44;;;;;;;;;7.00;3.25;;;;;18.37;37.60;102043.72;5077572;27;51102;-50
2022/02/22 02:34:15;;;;;;;;;3.50;3.00;;;;;18.36;37.53;102037.38;5077344;27;51066;-52
2022/02/22 02:36:43;;;;;;;;;1.50;1.50;;;;;18.36;37.42;102026.41;5093128;27;51394;-53
2022/02/22 02:39:11;;;;;;;;;3.75;2.75;;;;;18.36;37.19;102031.88;5076689;27;51106;-53
2022/02/22 02:41:37;;;;;;;;;4.75;3.00;;;;;18.35;37.40;102034.81;5077697;28;51235;-50
2022/02/22 02:44:05;;;;;;;;;3.75;2.00;;;;;18.34;37.56;102028.47;5077224;28;52100;-53
2022/02/22 02:46:32;;;;;;;;;6.00;3.75;;;;;18.36;37.56;102031.03;5077356;27;51096;-48
2022/02/22 02:48:58;;;;;;;;;10.00;2.50;;;;;18.35;37.47;102035.66;5077472;27;51085;-51
2022/02/22 02:51:23;;;;;;;;;6.25;3.50;;;;;18.33;37.51;102037.72;5077222;27;50984;-51
2022/02/22 02:53:50;;;;;;;;;5.25;3.00;;;;;18.33;37.35;102036.84;5076904;27;51709;-53
2022/02/22 02:56:15;;;;;;;;;3.00;2.00;;;;;18.33;37.29;102048.69;5077036;27;51342;-52
2022/02/22 02:58:41;;;;;;;;;2.75;2.75;;;;;18.33;37.56;102056.91;5077209;27;50970;-52
2022/02/22 03:01:06;;;;;;;;;4.00;1.25;;;;;18.33;37.43;102056.06;5077528;27;51042;-51
2022/02/22 03:03:32;;;;;;;;;5.00;4.00;;;;;18.32;37.39;102063.44;5076649;28;51046;-51
2022/02/22 03:05:58;;;;;;;;;3.25;1.75;;;;;18.33;37.53;102058.81;5076915;27;51120;-52
2022/02/22 03:08:23;;;;;;;;;3.00;3.00;;;;;18.32;37.57;102073.56;5076670;27;51184;-48
2022/02/22 03:10:49;;;;;;;;;3.75;1.25;;;;;18.32;37.34;102071.66;5077150;27;51175;-52
2022/02/22 03:13:14;;;;;;;;;4.00;1.25;;;;;18.32;37.56;102068.91;5076830;27;51775;-51
2022/02/22 03:15:40;;;;;;;;;5.25;4.25;;;;;18.32;37.38;102063.44;5076311;27;51060;-51
2022/02/22 03:18:05;;;;;;;;;4.00;3.00;;;;;18.31;37.39;102053.50;5077073;27;51180;-52
2022/02/22 03:20:30;;;;;;;;;3.50;3.00;;;;;18.31;37.47;102058.13;5076600;27;50912;-49
2022/02/22 03:22:56;;;;;;;;;3.50;3.00;;;;;18.31;37.62;102063.63;5076434;27;51025;-53
2022/02/22 03:25:21;;;;;;;;;5.25;4.75;;;;;18.30;37.27;102054.53;5076537;27;51037;-51
2022/02/22 03:27:47;;;;;;;;;4.00;4.00;;;;;18.30;37.33;102060.03;5109284;27;51502;-49
2022/02/22 03:30:12;;;;;;;;;3.75;2.25;;;;;18.30;37.63;102057.28;5076531;27;51290;-50
2022/02/22 03:32:38;;;;;;;;;5.00;4.00;;;;;18.29;37.28;102069.28;5076057;27;51675;-50
2022/02/22 03:35:03;;;;;;;;;7.75;5.25;;;;;18.29;37.34;102061.06;5076469;27;51007;-53
2022/02/22 03:37:29;;;;;;;;;3.75;3.50;;;;;18.29;37.39;102057.47;5076492;28;51117;-51
2022/02/22 03:39:54;;;;;;;;;8.75;3.00;;;;;18.29;37.28;102062.94;5076159;27;51038;-52
2022/02/22 03:42:19;;;;;;;;;4.50;3.00;;;;;18.29;37.55;102063.81;5076107;27;51870;-51
2022/02/22 03:44:45;;;;;;;;;6.00;4.00;;;;;18.28;37.35;102062.09;5092140;27;51043;-49
2022/02/22 03:47:10;;;;;;;;;3.75;3.75;;;;;18.28;37.29;102053.88;5076262;27;51133;-49
2022/02/22 03:49:35;;;;;;;;;5.25;3.00;;;;;18.28;37.59;102045.63;5075490;27;51034;-50
2022/02/22 03:52:01;;;;;;;;;6.00;5.00;;;;;18.28;37.58;102042.03;5075617;27;51723;-49
2022/02/22 03:54:26;;;;;;;;;6.50;2.00;;;;;18.28;37.43;102047.53;5075798;27;51231;-52
2022/02/22 03:56:51;;;;;;;;;3.75;3.00;;;;;18.28;37.31;102055.75;5076213;27;51077;-53
2022/02/22 03:59:17;;;;;;;;;9.25;2.00;;;;;18.27;37.66;102057.66;5076412;27;51247;-52
2022/02/22 04:01:42;;;;;;;;;5.75;3.50;;;;;18.27;37.54;102057.66;5075801;27;50965;-51
2022/02/22 04:04:07;;;;;;;;;5.00;2.00;;;;;18.26;37.28;102042.22;5076061;27;51090;-52
2022/02/22 04:06:33;;;;;;;;;5.00;3.00;;;;;18.26;37.60;102044.97;5076099;27;51018;-52
2022/02/22 04:08:58;;;;;;;;;3.00;2.75;;;;;18.26;37.59;102049.59;5076030;27;50970;-51
2022/02/22 04:11:24;;;;;;;;;5.25;3.50;;;;;18.25;37.33;102054.25;5075815;27;52508;-53
2022/02/22 04:13:49;;;;;;;;;3.00;3.00;;;;;18.25;37.54;102051.50;5076036;27;51012;-51
2022/02/22 04:16:15;;;;;;;;;5.75;4.00;;;;;18.25;37.61;102051.50;5075768;27;51171;-53
2022/02/22 04:18:40;;;;;;;;;5.50;3.75;;;;;18.24;37.37;102049.78;5076248;27;51116;-50
2022/02/22 04:21:06;;;;;;;;;5.25;2.25;;;;;18.24;37.56;102049.78;5075460;27;51994;-53
2022/02/22 04:23:31;;;;;;;;;4.75;2.50;;;;;18.23;37.59;102059.03;5075745;27;51104;-51
2022/02/22 04:25:56;;;;;;;;;5.25;4.00;;;;;18.24;37.42;102060.75;5075879;27;51048;-53
2022/02/22 04:28:22;;;;;;;;;4.75;3.00;;;;;18.24;37.70;102066.25;5076112;27;51377;-50
2022/02/22 04:30:47;;;;;;;;;4.50;3.00;;;;;18.24;37.37;102069.00;5075647;27;51123;-52
2022/02/22 04:33:12;;;;;;;;;5.00;3.25;;;;;18.23;37.42;102072.72;5075468;27;51057;-50
2022/02/22 04:35:38;;;;;;;;;5.75;3.00;;;;;18.23;37.55;102072.72;5075558;27;51167;-53
2022/02/22 04:38:03;;;;;;;;;5.50;4.00;;;;;18.23;37.44;102075.47;5076065;27;51241;-48
2022/02/22 04:40:29;;;;;;;;;4.75;4.00;;;;;18.23;37.43;102078.22;5075210;27;51800;-52
2022/02/22 04:42:55;;;;;;;;;6.75;3.50;;;;;18.24;37.70;102073.63;5075803;27;51106;-50
2022/02/22 04:45:21;;;;;;;;;8.50;3.00;;;;;18.23;37.70;102072.72;5075858;27;51037;-54
2022/02/22 04:47:47;;;;;;;;;3.75;2.50;;;;;18.23;37.33;102070.00;5075906;27;50990;-50
2022/02/22 04:50:14;;;;;;;;;4.00;3.00;;;;;18.23;37.39;102069.13;5075043;27;52948;-49
2022/02/22 04:52:39;;;;;;;;;6.75;4.50;;;;;18.22;37.12;102073.78;5075293;27;51269;-50
2022/02/22 04:55:06;;;;;;;;;4.00;3.00;;;;;18.21;37.65;102074.81;5075268;27;51162;-52
2022/02/22 04:57:34;;;;;;;;;4.00;3.00;;;;;18.21;37.34;102069.31;5075577;27;51455;-53
2022/02/22 04:59:59;;;;;;;;;3.50;2.75;;;;;18.22;37.79;102072.91;5075455;27;51992;-51
2022/02/22 05:02:24;;;;;;;;;5.25;3.25;;;;;18.22;37.33;102075.66;5077637;27;51156;-52
2022/02/22 05:04:50;;;;;;;;;4.75;4.00;;;;;18.20;37.62;102075.84;5078989;27;51076;-50
2022/02/22 05:07:15;;;;;;;;;7.00;4.00;;;;;18.22;37.36;102086.63;5079020;27;51046;-50
2022/02/22 05:09:40;;;;;;;;;4.00;3.25;;;;;18.21;37.44;102088.50;5111298;27;51816;-52
2022/02/22 05:12:06;;;;;;;;;6.50;3.00;;;;;18.21;37.45;102083.03;5078710;27;51159;-52
2022/02/22 05:14:32;;;;;;;;;4.25;2.50;;;;;18.22;37.37;102083.88;5078728;27;51091;-52
2022/02/22 05:16:57;;;;;;;;;4.50;3.75;;;;;18.20;37.48;102085.97;5078506;27;51334;-51
2022/02/22 05:19:22;;;;;;;;;5.00;3.00;;;;;18.21;37.48;102085.78;5078534;27;51596;-50
2022/02/22 05:21:48;;;;;;;;;3.25;3.00;;;;;18.19;37.29;102079.63;5078613;27;51044;-49
2022/02/22 05:24:13;;;;;;;;;3.50;2.00;;;;;18.20;37.66;102075.00;5078346;27;50896;-52
2022/02/22 05:26:38;;;;;;;;;11.75;3.75;;;;;18.20;37.32;102077.72;5078932;27;50972;-50
2022/02/22 05:29:04;;;;;;;;;4.00;3.00;;;;;18.18;37.56;102070.53;5078098;27;50996;-50
2022/02/22 05:31:29;;;;;;;;;4.50;2.75;;;;;18.18;37.57;102075.16;5078172;27;51049;-52
2022/02/22 05:33:56;;;;;;;;;5.50;3.25;;;;;18.18;37.63;102076.03;5078545;27;51054;-51
2022/02/22 05:36:22;;;;;;;;;4.25;2.50;;;;;18.19;37.47;102076.88;5078536;27;50951;-53
2022/02/22 05:38:48;;;;;;;;;4.25;3.50;;;;;18.19;37.41;102079.63;5093920;27;51786;-51
2022/02/22 05:41:17;;;;;;;;;7.00;3.75;;;;;18.18;37.64;102077.91;5077963;27;50991;-49
2022/02/22 05:43:43;;;;;;;;;4.75;2.75;;;;;18.19;37.64;102074.13;5078224;27;51005;-51
2022/02/22 05:46:08;;;;;;;;;7.50;3.00;;;;;18.18;37.49;102083.41;5078537;27;50975;-52
2022/02/22 05:48:33;;;;;;;;;3.00;3.00;;;;;18.17;37.43;102085.28;5077902;27;50933;-53
2022/02/22 05:50:59;;;;;;;;;4.00;2.00;;;;;18.18;37.64;102086.13;5078215;27;51598;-53
2022/02/22 05:53:24;;;;;;;;;3.25;3.25;;;;;18.18;37.56;102083.41;5077854;27;51066;-52
2022/02/22 05:55:49;;;;;;;;;4.00;4.00;;;;;18.17;37.57;102076.19;5093823;27;50988;-52
2022/02/22 05:58:15;;;;;;;;;5.00;4.00;;;;;18.17;37.43;102074.31;5077813;27;51578;-52
2022/02/22 06:00:41;;;;;;;;;3.00;3.00;;;;;18.17;37.55;102067.97;5077875;27;51077;-50
2022/02/22 06:03:06;;;;;;;;;4.75;2.50;;;;;18.17;37.47;102059.75;5077863;27;51081;-52
2022/02/22 06:05:31;;;;;;;;;5.75;3.75;;;;;18.16;37.51;102060.78;5077792;27;50936;-52
2022/02/22 06:07:57;;;;;;;;;6.50;4.00;;;;;18.16;37.39;102064.38;5077785;27;51906;-51
2022/02/22 06:10:22;;;;;;;;;3.00;2.75;;;;;18.17;37.33;102065.22;5077648;27;51345;-52
2022/02/22 06:12:49;;;;;;;;;3.75;2.75;;;;;18.17;37.70;102054.25;5075493;28;51159;-54
2022/02/22 06:15:14;;;;;;;;;7.50;3.25;;;;;18.16;37.66;102049.81;5077963;27;51366;-52
2022/02/22 06:17:44;;;;;;;;;5.25;2.00;;;;;18.16;37.38;102053.41;5092944;27;51851;-49
2022/02/22 06:20:12;;;;;;;;;3.75;2.00;;;;;18.16;37.58;102058.03;5077659;27;51166;-52
2022/02/22 06:22:38;;;;;;;;;7.75;3.50;;;;;18.15;37.58;102056.34;5077579;27;51189;-52
2022/02/22 06:25:05;;;;;;;;;2.00;2.00;;;;;18.14;37.51;102060.97;5077777;27;51415;-53
2022/02/22 06:27:31;;;;;;;;;3.50;3.00;;;;;18.15;37.77;102072.78;5077268;27;51800;-54
2022/02/22 06:29:57;;;;;;;;;4.75;3.75;;;;;18.15;37.29;102072.78;5077148;27;51130;-50
2022/02/22 06:32:22;;;;;;;;;4.25;3.50;;;;;18.15;37.63;102067.31;5077343;27;50986;-49
2022/02/22 06:34:47;;;;;;;;;4.75;4.75;;;;;18.16;37.45;102071.75;5077515;27;51001;-50
2022/02/22 06:37:13;;;;;;;;;3.75;0.50;;;;;18.15;37.59;102070.03;5076734;27;50948;-50
2022/02/22 06:39:38;;;;;;;;;5.75;5.00;;;;;18.14;37.36;102073.81;5077101;27;51077;-52
2022/02/22 06:42:04;;;;;;;;;4.00;2.00;;;;;18.14;37.65;102066.44;5077180;27;51792;-51
2022/02/22 06:44:29;;;;;;;;;7.50;4.50;;;;;18.14;37.55;102065.59;5077147;27;50927;-54
2022/02/22 06:46:55;;;;;;;;;7.25;2.50;;;;;18.14;37.30;102066.44;5076742;27;51627;-52
2022/02/22 06:49:20;;;;;;;;;4.00;2.50;;;;;18.14;37.42;102071.09;5077284;28;51004;-50
2022/02/22 06:51:45;;;;;;;;;7.00;4.00;;;;;18.13;37.58;102069.34;5076786;27;50980;-50
2022/02/22 06:54:11;;;;;;;;;5.25;4.00;;;;;18.13;37.29;102075.72;5077053;27;51079;-51
2022/02/22 06:56:36;;;;;;;;;9.25;5.00;;;;;18.12;37.41;102068.50;5076848;27;50958;-54
2022/02/22 06:59:01;;;;;;;;;7.25;5.25;;;;;18.12;37.36;102065.75;5076942;27;51055;-52
2022/02/22 07:01:27;;;;;;;;;4.50;4.00;;;;;18.13;37.38;102074.81;5076961;27;51240;-50
2022/02/22 07:03:52;;;;;;;;;7.25;4.50;;;;;18.13;37.68;102089.44;5077000;27;51142;-48
2022/02/22 07:06:17;;;;;;;;;6.50;3.00;;;;;18.11;37.69;102085.97;5109584;27;52948;-51
2022/02/22 07:08:43;;;;;;;;;6.00;5.50;;;;;18.12;37.66;102084.94;5076722;27;51066;-51
2022/02/22 07:11:08;;;;;;;;;8.75;5.25;;;;;18.13;37.51;102083.94;5076717;27;51206;-51
2022/02/22 07:13:33;;;;;;;;;9.25;4.25;;;;;18.12;37.65;102090.44;5076902;27;51111;-53
2022/02/22 07:15:59;;;;;;;;;6.75;4.00;;;;;18.12;37.44;102079.47;5076032;27;51082;-49
2022/02/22 07:18:24;;;;;;;;;4.50;3.75;;;;;18.12;37.63;102073.13;5076834;27;50996;-52
2022/02/22 07:20:50;;;;;;;;;2.75;2.75;;;;;18.12;37.41;102084.09;5076508;27;51152;-52
2022/02/22 07:23:15;;;;;;;;;5.00;3.00;;;;;18.12;37.60;102078.59;5076694;27;51334;-49
2022/02/22 07:25:40;;;;;;;;;6.00;3.25;;;;;18.12;37.66;102078.59;5076053;27;51813;-53
2022/02/22 07:28:06;;;;;;;;;6.50;4.50;;;;;18.12;37.52;102078.59;5076360;27;51081;-52
2022/02/22 07:30:31;;;;;;;;;6.50;3.00;;;;;18.12;37.60;102081.34;5076001;28;51102;-52
2022/02/22 07:33:00;;;;;;;;;9.25;5.00;;;;;18.12;37.67;102070.38;5076315;27;51030;-54
2022/02/22 07:35:26;;;;;;;;;6.25;3.25;;;;;18.12;37.59;102078.59;5075725;27;50980;-50
2022/02/22 07:37:52;;;;;;;;;6.00;3.00;;;;;18.11;37.60;102079.63;5076164;27;50969;-51
2022/02/22 07:40:19;;;;;;;;;6.75;4.75;;;;;18.10;37.58;102084.28;5075962;27;51497;-53
2022/02/22 07:42:45;;;;;;;;;6.50;4.25;;;;;18.11;37.67;102088.72;5075120;28;51429;-49
2022/02/22 07:45:13;;;;;;;;;5.25;3.00;;;;;18.10;37.70;102081.53;5075804;27;52899;-53
2022/02/22 07:47:38;;;;;;;;;6.25;3.00;;;;;18.10;37.67;102084.28;5076281;27;51276;-52
2022/02/22 07:50:05;;;;;;;;;4.00;3.00;;;;;18.10;37.63;102092.50;5075965;28;50955;-53
2022/02/22 07:52:31;;;;;;;;;3.50;3.00;;;;;18.09;37.79;102085.31;5075789;27;51085;-52
2022/02/22 07:54:57;;;;;;;;;3.75;3.50;;;;;18.10;37.44;102067.81;5075553;27;51909;-53
2022/02/22 07:57:23;;;;;;;;;3.75;3.00;;;;;18.11;37.50;102082.38;5075988;27;50930;-49
2022/02/22 07:59:48;;;;;;;;;6.50;5.00;;;;;18.10;37.67;102083.41;5075785;27;51117;-52
2022/02/22 08:02:14;;;;;;;;;2.75;2.75;;;;;18.11;37.69;102076.91;5075809;27;51512;-52
2022/02/22 08:04:40;;;;;;;;;6.50;4.25;;;;;18.10;37.47;102072.44;5075603;27;51818;-51
2022/02/22 08:07:08;;;;;;;;;8.75;4.25;;;;;18.10;37.44;102066.97;5075627;27;51115;-49
2022/02/22 08:09:33;;;;;;;;;9.00;3.75;;;;;18.11;37.84;102071.41;5075733;27;51052;-51
2022/02/22 08:11:58;;;;;;;;;3.75;3.25;;;;;18.11;37.45;102072.28;5075658;27;50981;-53
2022/02/22 08:14:24;;;;;;;;;3.75;3.00;;;;;18.11;37.79;102068.66;5075280;27;51050;-50
2022/02/22 08:16:50;;;;;;;;;6.75;5.00;;;;;18.10;37.67;102067.81;5075205;27;51099;-53
2022/02/22 08:19:16;;;;;;;;;6.25;4.25;;;;;18.11;37.74;102063.19;5075662;28;51106;-52
2022/02/22 08:21:42;;;;;;;;;7.25;3.00;;;;;18.11;37.80;102060.44;5075467;27;51001;-53
2022/02/22 08:24:07;;;;;;;;;4.50;3.00;;;;;18.10;37.69;102065.06;5073568;28;51006;-50
2022/02/22 08:26:33;;;;;;;;;5.00;3.50;;;;;18.11;37.58;102071.41;5075501;27;51174;-53
2022/02/22 08:28:58;;;;;;;;;6.00;4.00;;;;;18.11;37.63;102074.16;5075190;27;51092;-53
2022/02/22 08:31:25;;;;;;;;;3.00;3.00;;;;;18.11;37.66;102065.94;5075299;27;50974;-53
2022/02/22 08:33:52;;;;;;;;;5.00;5.00;;;;;18.11;37.89;102071.41;5074872;27;52029;-51
2022/02/22 08:36:17;;;;;;;;;2.25;2.25;;;;;18.10;37.75;102070.56;5075812;27;51260;-52
2022/02/22 08:38:44;;;;;;;;;6.00;4.25;;;;;18.10;37.76;102067.81;5078858;27;51026;-51
2022/02/22 08:41:09;;;;;;;;;7.50;3.75;;;;;18.10;37.54;102073.31;5078686;27;50986;-51
2022/02/22 08:43:35;;;;;;;;;2.50;2.00;;;;;18.10;37.77;102067.81;5078545;28;52025;-51
2022/02/22 08:46:01;;;;;;;;;5.75;4.25;;;;;18.10;37.83;102059.59;5078756;27;51108;-50
2022/02/22 08:48:27;;;;;;;;;3.50;2.75;;;;;18.10;37.83;102054.09;5078868;27;51061;-53
2022/02/22 08:50:53;;;;;;;;;10.50;2.25;;;;;18.10;37.62;102058.75;5078836;27;51449;-52
2022/02/22 08:53:18;;;;;;;;;5.25;3.25;;;;;18.10;37.55;102056.00;5078181;27;51781;-54
2022/02/22 08:55:44;;;;;;;;;5.00;4.00;;;;;18.10;37.68;102047.78;5078253;27;51061;-52
2022/02/22 08:58:09;;;;;;;;;4.50;3.50;;;;;18.10;37.86;102045.03;5078897;27;51195;-51
2022/02/22 09:00:36;;;;;;;;;6.75;2.50;;;;;18.10;37.86;102048.63;5078654;27;51080;-50
2022/02/22 09:03:03;;;;;;;;;2.75;2.00;;;;;18.10;37.89;102054.09;5078148;27;52665;-53
2022/02/22 09:05:33;;;;;;;;;7.25;4.50;;;;;18.11;37.53;102052.22;5078117;27;51100;-50
2022/02/22 09:07:59;;;;;;;;;3.00;3.00;;;;;18.11;37.96;102055.81;5078321;27;51230;-54
2022/02/22 09:10:24;;;;;;;;;4.75;4.00;;;;;18.10;37.87;102054.09;5078689;27;51235;-50
2022/02/22 09:12:50;;;;;;;;;3.00;2.50;;;;;18.10;37.63;102043.13;5078232;27;51245;-51
2022/02/22 09:15:18;;;;;;;;;6.50;4.00;;;;;18.11;37.78;102036.63;5078381;27;51264;-53
2022/02/22 09:17:45;;;;;;;;;4.75;4.00;;;;;18.10;37.71;102029.44;5078219;27;50993;-51
2022/02/22 09:20:13;;;;;;;;;6.25;3.50;;;;;18.11;37.94;102028.38;5078671;27;51093;-53
2022/02/22 09:22:38;;;;;;;;;4.00;3.00;;;;;18.10;38.02;102028.56;5077986;27;51170;-51
2022/02/22 09:25:06;;;;;;;;;9.50;4.50;;;;;18.10;37.83;102017.59;5077977;27;51077;-52
2022/02/22 09:27:31;;;;;;;;;3.00;3.00;;;;;18.10;38.01;102026.69;5077888;27;51148;-53
2022/02/22 09:29:56;;;;;;;;;5.50;2.75;;;;;18.10;37.91;102029.44;5077611;27;51261;-51
2022/02/22 09:32:23;;;;;;;;;4.00;2.25;;;;;18.11;38.20;102022.91;5077575;27;51132;-52
2022/02/22 09:34:49;;;;;;;;;4.00;4.00;;;;;18.11;38.07;102033.03;5077741;28;51086;-53
2022/02/22 09:37:15;;;;;;;;;5.75;3.75;;;;;18.11;37.80;102031.13;5077932;27;51198;-52
2022/02/22 09:39:40;;;;;;;;;6.25;3.00;;;;;18.11;37.91;102031.13;5077764;27;51081;-52
2022/02/22 09:42:07;;;;;;;;;9.00;5.75;;;;;18.11;37.96;102020.16;5077212;27;51787;-53
2022/02/22 09:44:34;;;;;;;;;6.00;4.00;;;;;18.11;37.85;102016.56;5077696;27;51351;-51
2022/02/22 09:47:00;;;;;;;;;3.50;2.00;;;;;18.12;37.84;102024.63;5077467;27;51013;-50
2022/02/22 09:49:26;;;;;;;;;3.50;2.00;;;;;18.12;38.02;102010.91;5077023;27;51065;-54
2022/02/22 09:51:53;;;;;;;;;4.25;2.00;;;;;18.12;38.12;102010.06;5077046;27;51987;-55
2022/02/22 09:54:21;;;;;;;;;2.25;2.25;;;;;18.12;37.94;101996.34;5077476;27;51237;-54
2022/02/22 09:56:48;;;;;;;;;1.50;1.50;;;;;18.13;38.14;101987.06;5077783;27;50970;-53
2022/02/22 09:59:14;;;;;;;;;6.00;5.00;;;;;18.12;38.23;101979.88;5077676;27;51064;-52
2022/02/22 10:01:39;;;;;;;;;4.75;3.00;;;;;18.13;37.93;101976.09;5077246;27;51807;-52
2022/02/22 10:04:05;;;;;;;;;6.50;3.50;;;;;18.13;38.55;101973.38;5077618;27;51011;-50
2022/02/22 10:06:31;;;;;;;;;5.25;2.25;;;;;18.12;38.57;101968.91;5077492;27;51170;-53
2022/02/22 10:08:56;;;;;;;;;3.50;2.50;;;;;18.12;38.18;101960.69;5077620;28;51088;-50
2022/02/22 10:11:22;;;;;;;;;3.50;3.25;;;;;18.13;38.30;101954.16;5076906;27;52022;-53
2022/02/22 10:13:47;;;;;;;;;4.25;2.75;;;;;18.13;38.08;101959.66;5077693;27;51082;-52
2022/02/22 10:16:14;;;;;;;;;1.75;1.50;;;;;18.14;38.17;101966.88;5077182;27;51155;-52
2022/02/22 10:18:46;;;;;;;;;5.00;3.50;;;;;18.14;38.40;101961.38;5077458;27;51121;-51
2022/02/22 10:21:12;;;;;;;;;3.50;2.25;;;;;18.16;38.20;101964.81;5092713;27;53115;-53
2022/02/22 10:23:37;;;;;;;;;4.25;4.00;;;;;18.16;37.81;101976.63;5077172;27;51243;-54
2022/02/22 10:26:02;;;;;;;;;4.25;3.75;;;;;18.16;38.26;101982.09;5077477;27;51129;-53
2022/02/22 10:28:28;;;;;;;;;2.25;2.00;;;;;18.16;38.30;101967.53;5077078;27;51093;-52
2022/02/22 10:30:54;;;;;;;;;6.00;4.00;;;;;18.16;38.02;101986.75;5077111;27;51936;-48
2022/02/22 10:33:23;;;;;;;;;2.75;2.75;;;;;18.15;38.05;101994.13;5077122;27;51303;-54
2022/02/22 10:35:56;;;;;;;;;3.75;2.50;;;;;18.16;38.30;101997.72;5076957;27;51265;-54
2022/02/22 10:38:28;;;;;;;;;3.75;2.75;;;;;18.16;38.33;102009.53;5077112;27;50964;-50
2022/02/22 10:41:06;;;;;;;;;4.00;2.50;;;;;18.16;37.98;102011.41;5076785;27;52702;-53
2022/02/22 10:43:36;;;;;;;;;3.25;3.00;;;;;18.17;38.39;102018.59;5076650;27;51236;-52
2022/02/22 10:46:07;;;;;;;;;6.50;3.50;;;;;18.16;38.25;102012.28;5075795;28;51103;-51
2022/02/22 10:48:41;;;;;;;;;4.25;1.75;;;;;18.17;38.38;102004.91;5076903;27;50986;-51
2022/02/22 10:51:15;;;;;;;;;1.50;1.50;;;;;18.16;38.24;102009.53;5076382;27;51149;-51
2022/02/22 10:53:48;;;;;;;;;4.00;3.00;;;;;18.16;38.31;101997.72;5076601;27;51300;-51
2022/02/22 10:56:16;;;;;;;;;1.75;1.75;;;;;18.17;38.26;101996.66;5076839;27;50997;-53
2022/02/22 10:58:45;;;;;;;;;2.25;1.75;;;;;18.16;38.24;101993.06;5076517;27;51155;-52
2022/02/22 11:01:23;;;;;;;;;3.50;3.50;;;;;18.16;38.43;101994.97;5076517;27;51087;-54
2022/02/22 11:03:49;;;;;;;;;2.50;2.50;;;;;18.16;38.34;101997.72;5076699;27;51029;-50
2022/02/22 11:06:15;;;;;;;;;5.00;3.50;;;;;18.16;38.57;101998.56;5076494;27;51190;-54
2022/02/22 11:08:44;;;;;;;;;4.00;1.75;;;;;18.16;38.33;102005.94;5076531;27;51159;-53
2022/02/22 11:11:20;;;;;;;;;4.00;3.00;;;;;18.16;38.38;102001.31;5076125;27;51908;-52
2022/02/22 11:14:07;;;;;;;;;2.25;2.25;;;;;18.17;38.36;102002.16;5108631;27;51132;-54
2022/02/22 11:16:47;;;;;;;;;3.00;2.25;;;;;18.17;38.36;101988.44;5076089;27;51041;-53
2022/02/22 11:19:13;;;;;;;;;6.50;1.75;;;;;18.16;38.36;101976.63;5076680;28;50942;-52